Latest Weather Observations for Ocean Reef

IDW60801

Issued at 4:44 am WST Friday 22 January 2021 (issued every 10 minutes, with the page automatically refreshed every 10 minutes)

About weather observations | Map of weather stations | Latest weather observations for WA | Other Formats
Station Details ID: 009214 Name: OCEAN REEF Lat: -31.76 Lon: 115.73 Height: 10.0 m
Data from the previous 72 hours. | See also: Recent months at Ocean Reef
Date/Time
WST
Temp
°C
App
Temp
°C
Dew
Point
°C
Rel
Hum
%
Delta-T
°C
Wind Press
QNH
hPa
Press
MSL
hPa
Rain since
9am
mm
Dir  Spd
km/h
Gust
km/h
Spd
kts
Gust
kts
22/04:30am - - - - - E 26 33 14 18 - - -
22/04:00am - - - - - E 28 39 15 21 - - -
22/03:30am - - - - - E 30 41 16 22 - - -
22/03:00am - - - - - E 35 50 19 27 - - -
22/02:30am - - - - - E 32 39 17 21 - - -
22/02:00am - - - - - E 33 48 18 26 - - -
22/01:30am - - - - - E 26 33 14 18 - - -
22/01:00am - - - - - E 19 28 10 15 - - -
22/12:30am - - - - - E 24 32 13 17 - - -
22/12:00am - - - - - ESE 17 24 9 13 - - -
 
Date/Time
WST
Temp
°C
App
Temp
°C
Dew
Point
°C
Rel
Hum
%
Delta-T
°C
Wind Press
QNH
hPa
Press
MSL
hPa
Rain since
9am
mm
Dir  Spd
km/h
Gust
km/h
Spd
kts
Gust
kts
21/11:30pm - - - - - SSE 9 11 5 6 - - -
21/11:00pm - - - - - ESE 9 11 5 6 - - -
21/10:30pm - - - - - SSE 17 24 9 13 - - -
21/10:00pm - - - - - S 26 32 14 17 - - -
21/09:30pm - - - - - S 22 28 12 15 - - -
21/09:00pm - - - - - S 28 33 15 18 - - -
21/08:30pm - - - - - S 30 35 16 19 - - -
21/08:00pm - - - - - S 30 37 16 20 - - -
21/07:30pm - - - - - S 28 33 15 18 - - -
21/07:00pm - - - - - S 30 39 16 21 - - -
21/06:30pm - - - - - S 32 37 17 20 - - -
21/06:00pm - - - - - S 33 39 18 21 - - -
21/05:30pm - - - - - S 32 37 17 20 - - -
21/05:00pm - - - - - SSW 33 39 18 21 - - -
21/04:30pm - - - - - S 33 39 18 21 - - -
21/04:00pm - - - - - SSW 32 39 17 21 - - -
21/03:30pm - - - - - SSW 33 39 18 21 - - -
21/03:00pm - - - - - S 33 43 18 23 - - -
21/02:30pm - - - - - SSW 28 33 15 18 - - -
21/02:00pm - - - - - SSW 32 37 17 20 - - -
21/01:30pm - - - - - SSW 28 33 15 18 - - -
21/01:00pm - - - - - SSW 28 33 15 18 - - -
21/12:30pm - - - - - S 30 37 16 20 - - -
21/12:00pm - - - - - SSW 32 41 17 22 - - -
21/11:30am - - - - - SSW 32 39 17 21 - - -
21/11:00am - - - - - SSW 32 37 17 20 - - -
21/10:30am - - - - - SSW 26 30 14 16 - - -
21/10:00am - - - - - SSW 24 30 13 16 - - -
21/09:30am - - - - - SSW 20 26 11 14 - - -
21/09:00am - - - - - SE 17 26 9 14 - - -
21/08:30am - - - - - SSE 17 20 9 11 - - -
21/08:00am - - - - - SE 15 24 8 13 - - -
21/07:30am - - - - - SE 19 26 10 14 - - -
21/07:00am - - - - - SE 17 24 9 13 - - -
21/06:30am - - - - - SE 17 32 9 17 - - -
21/06:00am - - - - - SE 11 15 6 8 - - -
21/05:30am - - - - - SE 11 15 6 8 - - -
21/05:00am - - - - - SE 9 11 5 6 - - -
21/04:30am - - - - - SSE 13 15 7 8 - - -
21/04:00am - - - - - SSE 13 17 7 9 - - -
21/03:30am - - - - - SSE 13 15 7 8 - - -
21/03:00am - - - - - SSE 11 11 6 6 - - -
21/02:30am - - - - - SE 13 13 7 7 - - -
21/02:00am - - - - - SSE 9 11 5 6 - - -
21/01:30am - - - - - SSE 11 13 6 7 - - -
21/01:00am - - - - - SSE 13 17 7 9 - - -
21/12:30am - - - - - SSE 20 28 11 15 - - -
21/12:00am - - - - - S 15 24 8 13 - - -
 
Date/Time
WST
Temp
°C
App
Temp
°C
Dew
Point
°C
Rel
Hum
%
Delta-T
°C
Wind Press
QNH
hPa
Press
MSL
hPa
Rain since
9am
mm
Dir  Spd
km/h
Gust
km/h
Spd
kts
Gust
kts
20/11:30pm - - - - - SSE 9 13 5 7 - - -
20/11:00pm - - - - - S 15 19 8 10 - - -
20/10:30pm - - - - - S 13 17 7 9 - - -
20/10:00pm - - - - - S 20 28 11 15 - - -
20/09:30pm - - - - - S 24 30 13 16 - - -
20/09:00pm - - - - - SSW 26 32 14 17 - - -
20/08:30pm - - - - - S 26 32 14 17 - - -
20/08:00pm - - - - - S 28 33 15 18 - - -
20/07:30pm - - - - - S 26 33 14 18 - - -
20/07:00pm - - - - - SSW 26 33 14 18 - - -
20/06:30pm - - - - - SSW 26 30 14 16 - - -
20/06:00pm - - - - - SSW 24 32 13 17 - - -
20/05:30pm - - - - - SSW 24 32 13 17 - - -
20/05:00pm - - - - - SSW 28 32 15 17 - - -
20/04:30pm - - - - - SSW 20 24 11 13 - - -
20/04:00pm - - - - - SSW 20 26 11 14 - - -
20/03:30pm - - - - - SSW 26 30 14 16 - - -
20/03:00pm - - - - - SSW 24 28 13 15 - - -
20/02:30pm - - - - - SW 24 32 13 17 - - -
20/02:00pm - - - - - WSW 24 28 13 15 - - -
20/01:30pm - - - - - W 22 26 12 14 - - -
20/01:00pm - - - - - W 20 24 11 13 - - -
20/12:30pm - - - - - W 20 24 11 13 - - -
20/12:00pm - - - - - W 17 19 9 10 - - -
20/11:30am - - - - - WSW 13 15 7 8 - - -
20/11:00am - - - - - WSW 17 20 9 11 - - -
20/10:30am - - - - - SSW 15 17 8 9 - - -
20/10:00am - - - - - SSW 17 19 9 10 - - -
20/09:30am - - - - - SSW 17 20 9 11 - - -
20/09:00am - - - - - SSW 19 20 10 11 - - -
20/08:30am - - - - - SSW 19 22 10 12 - - -
20/08:00am - - - - - SSW 17 20 9 11 - - -
20/07:30am - - - - - SSW 17 20 9 11 - - -
20/07:00am - - - - - SSW 17 19 9 10 - - -
20/06:30am - - - - - SW 15 19 8 10 - - -
20/06:00am - - - - - SW 13 17 7 9 - - -
20/05:30am - - - - - WSW 17 22 9 12 - - -
20/05:00am - - - - - WSW 20 24 11 13 - - -
20/04:30am - - - - - WSW 15 17 8 9 - - -
20/04:00am - - - - - WSW 19 22 10 12 - - -
20/03:30am - - - - - SW 11 15 6 8 - - -
20/03:00am - - - - - WSW 7 9 4 5 - - -
20/02:30am - - - - - SW 9 13 5 7 - - -
20/02:00am - - - - - SSW 11 13 6 7 - - -
20/01:30am - - - - - S 13 15 7 8 - - -
20/01:00am - - - - - SSW 15 17 8 9 - - -
20/12:30am - - - - - SW 15 17 8 9 - - -
20/12:00am - - - - - SW 13 17 7 9 - - -
 
Date/Time
WST
Temp
°C
App
Temp
°C
Dew
Point
°C
Rel
Hum
%
Delta-T
°C
Wind Press
QNH
hPa
Press
MSL
hPa
Rain since
9am
mm
Dir  Spd
km/h
Gust
km/h
Spd
kts
Gust
kts
19/11:30pm - - - - - SW 15 19 8 10 - - -
19/11:00pm - - - - - SW 11 13 6 7 - - -
19/10:30pm - - - - - WSW 11 13 6 7 - - -
19/10:00pm - - - - - SW 13 15 7 8 - - -
19/09:30pm - - - - - WSW 9 13 5 7 - - -
19/09:00pm - - - - - SSW 7 9 4 5 - - -
19/08:30pm - - - - - SSW 9 13 5 7 - - -
19/08:00pm - - - - - S 13 17 7 9 - - -
19/07:30pm - - - - - S 13 15 7 8 - - -
19/07:00pm - - - - - SSW 17 20 9 11 - - -
19/06:30pm - - - - - SW 20 26 11 14 - - -
19/06:00pm - - - - - SW 19 24 10 13 - - -
19/05:30pm - - - - - SW 20 26 11 14 - - -
19/05:00pm - - - - - SW 19 26 10 14 - - -
19/04:30pm - - - - - SW 17 20 9 11 - - -
19/04:00pm - - - - - SW 15 17 8 9 - - -
19/03:30pm - - - - - SW 11 15 6 8 - - -
19/03:00pm - - - - - WSW 13 13 7 7 - - -
19/02:30pm - - - - - WSW 13 17 7 9 - - -
19/02:00pm - - - - - WSW 9 11 5 6 - - -
19/01:30pm - - - - - WSW 9 11 5 6 - - -
19/01:00pm - - - - - WSW 9 11 5 6 - - -
19/12:30pm - - - - - WSW 9 11 5 6 - - -
19/12:00pm - - - - - SW 9 11 5 6 - - -
19/11:30am - - - - - SSW 11 13 6 7 - - -
19/11:00am - - - - - SSW 11 11 6 6 - - -
19/10:30am - - - - - SSW 11 13 6 7 - - -
19/10:00am - - - - - SSW 11 13 6 7 - - -
19/09:30am - - - - - SSW 11 13 6 7 - - -
19/09:00am - - - - - SSW 15 19 8 10 - - -
19/08:30am - - - - - SSW 15 19 8 10 - - -
19/08:00am - - - - - SSW 9 11 5 6 - - -
19/07:30am - - - - - CALM 0 0 0 0 - - -
19/07:00am - - - - - NW 4 7 2 4 - - -
19/06:30am - - - - - CALM 0 0 0 0 - - -
19/06:00am - - - - - CALM 0 0 0 0 - - -
19/05:30am - - - - - NW 7 9 4 5 - - -
19/05:00am - - - - - NNW 9 13 5 7 - - -

Other formats

Comma delimited format used in spreadsheet applications
http://www.bom.gov.au/fwo/IDW60801/IDW60801.94607.axf

JavaScript Object Notation format (JSON) in row-major order
http://www.bom.gov.au/fwo/IDW60801/IDW60801.94607.json

Data quality

Most of these data are generated automatically and are frequently updated. Quality checks on data are not normally performed. It is possible for incorrect values to appear. Refer to information at About Latest Weather Observations and please check the disclaimer before using these data.